sensor_id;sensor_type;location;lat;lon;timestamp;temperature;humidity
44823;DHT22;51097;51.984;5.650;2024-03-02T00:02:18;11.70;99.90
44823;DHT22;51097;51.984;5.650;2024-03-02T00:04:45;11.60;99.90
44823;DHT22;51097;51.984;5.650;2024-03-02T00:07:11;11.60;99.90
44823;DHT22;51097;51.984;5.650;2024-03-02T00:09:39;11.60;99.90
44823;DHT22;51097;51.984;5.650;2024-03-02T00:12:05;11.80;99.90
44823;DHT22;51097;51.984;5.650;2024-03-02T00:14:31;11.60;99.90
44823;DHT22;51097;51.984;5.650;2024-03-02T00:16:56;11.60;99.90
44823;DHT22;51097;51.984;5.650;2024-03-02T00:19:22;11.80;99.90
44823;DHT22;51097;51.984;5.650;2024-03-02T00:21:48;11.50;99.90
44823;DHT22;51097;51.984;5.650;2024-03-02T00:24:33;11.70;99.90
44823;DHT22;51097;51.984;5.650;2024-03-02T00:26:59;11.70;99.90
44823;DHT22;51097;51.984;5.650;2024-03-02T00:29:25;11.80;99.90
44823;DHT22;51097;51.984;5.650;2024-03-02T00:31:51;11.70;99.90
44823;DHT22;51097;51.984;5.650;2024-03-02T00:34:18;11.90;99.90
44823;DHT22;51097;51.984;5.650;2024-03-02T00:36:44;11.80;99.90
44823;DHT22;51097;51.984;5.650;2024-03-02T00:39:12;11.80;99.90
44823;DHT22;51097;51.984;5.650;2024-03-02T00:41:40;11.90;99.90
44823;DHT22;51097;51.984;5.650;2024-03-02T00:44:11;12.00;99.90
44823;DHT22;51097;51.984;5.650;2024-03-02T00:46:39;12.10;99.90
44823;DHT22;51097;51.984;5.650;2024-03-02T00:51:37;12.00;99.90
44823;DHT22;51097;51.984;5.650;2024-03-02T00:54:07;12.00;99.90
44823;DHT22;51097;51.984;5.650;2024-03-02T00:56:33;12.00;99.90
44823;DHT22;51097;51.984;5.650;2024-03-02T00:59:00;12.00;99.90
44823;DHT22;51097;51.984;5.650;2024-03-02T01:01:25;12.00;99.90
44823;DHT22;51097;51.984;5.650;2024-03-02T01:03:51;11.80;99.90
44823;DHT22;51097;51.984;5.650;2024-03-02T01:06:17;11.80;99.90
44823;DHT22;51097;51.984;5.650;2024-03-02T01:08:43;11.80;99.90
44823;DHT22;51097;51.984;5.650;2024-03-02T01:11:09;11.80;99.90
44823;DHT22;51097;51.984;5.650;2024-03-02T01:13:35;11.70;99.90
44823;DHT22;51097;51.984;5.650;2024-03-02T01:16:00;11.60;99.90
44823;DHT22;51097;51.984;5.650;2024-03-02T01:18:26;11.60;99.90
44823;DHT22;51097;51.984;5.650;2024-03-02T01:20:52;11.70;99.90
44823;DHT22;51097;51.984;5.650;2024-03-02T01:23:24;11.70;99.90
44823;DHT22;51097;51.984;5.650;2024-03-02T01:25:51;11.90;99.90
44823;DHT22;51097;51.984;5.650;2024-03-02T01:28:17;11.80;99.90
44823;DHT22;51097;51.984;5.650;2024-03-02T01:30:44;11.70;99.90
44823;DHT22;51097;51.984;5.650;2024-03-02T01:33:10;11.80;99.90
44823;DHT22;51097;51.984;5.650;2024-03-02T01:35:36;11.70;99.90
44823;DHT22;51097;51.984;5.650;2024-03-02T01:38:03;11.80;99.90
44823;DHT22;51097;51.984;5.650;2024-03-02T01:40:28;11.70;99.90
44823;DHT22;51097;51.984;5.650;2024-03-02T01:42:54;11.70;99.90
44823;DHT22;51097;51.984;5.650;2024-03-02T01:45:21;11.70;99.90
44823;DHT22;51097;51.984;5.650;2024-03-02T01:47:47;11.70;99.90
44823;DHT22;51097;51.984;5.650;2024-03-02T01:50:13;11.70;99.90
44823;DHT22;51097;51.984;5.650;2024-03-02T01:52:38;11.70;99.90
44823;DHT22;51097;51.984;5.650;2024-03-02T01:55:04;11.70;99.90
44823;DHT22;51097;51.984;5.650;2024-03-02T01:57:31;11.70;99.90
44823;DHT22;51097;51.984;5.650;2024-03-02T01:59:57;11.60;99.90
44823;DHT22;51097;51.984;5.650;2024-03-02T02:02:23;11.60;99.90
44823;DHT22;51097;51.984;5.650;2024-03-02T02:04:49;11.60;99.90
44823;DHT22;51097;51.984;5.650;2024-03-02T02:07:14;11.60;99.90
44823;DHT22;51097;51.984;5.650;2024-03-02T02:09:43;11.50;99.90
44823;DHT22;51097;51.984;5.650;2024-03-02T02:12:09;11.40;99.90
44823;DHT22;51097;51.984;5.650;2024-03-02T02:14:36;11.40;99.90
44823;DHT22;51097;51.984;5.650;2024-03-02T02:17:02;11.30;99.90
44823;DHT22;51097;51.984;5.650;2024-03-02T02:19:27;11.20;99.90
44823;DHT22;51097;51.984;5.650;2024-03-02T02:21:54;11.40;99.90
44823;DHT22;51097;51.984;5.650;2024-03-02T02:24:19;11.30;99.90
44823;DHT22;51097;51.984;5.650;2024-03-02T02:26:45;11.20;99.90
44823;DHT22;51097;51.984;5.650;2024-03-02T02:29:10;11.40;99.90
44823;DHT22;51097;51.984;5.650;2024-03-02T02:31:40;11.30;99.90
44823;DHT22;51097;51.984;5.650;2024-03-02T02:34:06;11.30;99.90
44823;DHT22;51097;51.984;5.650;2024-03-02T02:36:36;11.20;99.90
44823;DHT22;51097;51.984;5.650;2024-03-02T02:39:03;11.20;99.90
44823;DHT22;51097;51.984;5.650;2024-03-02T02:41:29;11.20;99.90
44823;DHT22;51097;51.984;5.650;2024-03-02T02:43:55;11.30;99.90
44823;DHT22;51097;51.984;5.650;2024-03-02T02:46:21;11.30;99.90
44823;DHT22;51097;51.984;5.650;2024-03-02T02:48:47;11.30;99.90
44823;DHT22;51097;51.984;5.650;2024-03-02T02:51:12;11.30;99.90
44823;DHT22;51097;51.984;5.650;2024-03-02T02:53:38;11.30;99.90
44823;DHT22;51097;51.984;5.650;2024-03-02T02:56:06;11.30;99.90
44823;DHT22;51097;51.984;5.650;2024-03-02T02:58:40;11.20;99.90
44823;DHT22;51097;51.984;5.650;2024-03-02T03:01:06;11.30;99.90
44823;DHT22;51097;51.984;5.650;2024-03-02T03:03:33;11.20;99.90
44823;DHT22;51097;51.984;5.650;2024-03-02T03:05:58;11.20;99.90
44823;DHT22;51097;51.984;5.650;2024-03-02T03:08:24;11.20;99.90
44823;DHT22;51097;51.984;5.650;2024-03-02T03:10:52;11.30;99.90
44823;DHT22;51097;51.984;5.650;2024-03-02T03:13:18;11.30;99.90
44823;DHT22;51097;51.984;5.650;2024-03-02T03:15:44;11.20;99.90
44823;DHT22;51097;51.984;5.650;2024-03-02T03:18:09;11.20;99.90
44823;DHT22;51097;51.984;5.650;2024-03-02T03:20:36;11.20;99.90
44823;DHT22;51097;51.984;5.650;2024-03-02T03:23:01;11.10;99.90
44823;DHT22;51097;51.984;5.650;2024-03-02T03:25:29;11.10;99.90
44823;DHT22;51097;51.984;5.650;2024-03-02T03:27:55;11.00;99.90
44823;DHT22;51097;51.984;5.650;2024-03-02T03:30:20;11.00;99.90
44823;DHT22;51097;51.984;5.650;2024-03-02T03:32:46;11.00;99.90
44823;DHT22;51097;51.984;5.650;2024-03-02T03:35:13;10.90;99.90
44823;DHT22;51097;51.984;5.650;2024-03-02T03:37:40;10.80;99.90
44823;DHT22;51097;51.984;5.650;2024-03-02T03:40:06;10.90;99.90
44823;DHT22;51097;51.984;5.650;2024-03-02T03:42:41;10.90;99.90
44823;DHT22;51097;51.984;5.650;2024-03-02T03:45:06;10.80;99.90
44823;DHT22;51097;51.984;5.650;2024-03-02T03:47:32;10.80;99.90
44823;DHT22;51097;51.984;5.650;2024-03-02T03:49:58;10.70;99.90
44823;DHT22;51097;51.984;5.650;2024-03-02T03:52:24;10.70;99.90
44823;DHT22;51097;51.984;5.650;2024-03-02T03:54:50;10.80;99.90
44823;DHT22;51097;51.984;5.650;2024-03-02T03:57:16;10.70;99.90
44823;DHT22;51097;51.984;5.650;2024-03-02T03:59:42;10.70;99.90
44823;DHT22;51097;51.984;5.650;2024-03-02T04:02:08;10.70;99.90
44823;DHT22;51097;51.984;5.650;2024-03-02T04:04:34;10.70;99.90
44823;DHT22;51097;51.984;5.650;2024-03-02T04:07:00;10.80;99.90
44823;DHT22;51097;51.984;5.650;2024-03-02T04:09:25;10.80;99.90
44823;DHT22;51097;51.984;5.650;2024-03-02T04:11:51;10.80;99.90
44823;DHT22;51097;51.984;5.650;2024-03-02T04:14:17;10.60;99.90
44823;DHT22;51097;51.984;5.650;2024-03-02T04:16:42;10.70;99.90
44823;DHT22;51097;51.984;5.650;2024-03-02T04:19:08;10.60;99.90
44823;DHT22;51097;51.984;5.650;2024-03-02T04:21:33;10.70;99.90
44823;DHT22;51097;51.984;5.650;2024-03-02T04:23:59;10.70;99.90
44823;DHT22;51097;51.984;5.650;2024-03-02T04:26:25;10.60;99.90
44823;DHT22;51097;51.984;5.650;2024-03-02T04:28:52;10.60;99.90
44823;DHT22;51097;51.984;5.650;2024-03-02T04:31:18;10.60;99.90
44823;DHT22;51097;51.984;5.650;2024-03-02T04:33:43;10.50;99.90
44823;DHT22;51097;51.984;5.650;2024-03-02T04:36:09;10.50;99.90
44823;DHT22;51097;51.984;5.650;2024-03-02T04:38:40;10.50;99.90
44823;DHT22;51097;51.984;5.650;2024-03-02T04:41:06;10.50;99.90
44823;DHT22;51097;51.984;5.650;2024-03-02T04:43:32;10.60;99.90
44823;DHT22;51097;51.984;5.650;2024-03-02T04:45:58;10.60;99.90
44823;DHT22;51097;51.984;5.650;2024-03-02T04:48:24;10.60;99.90
44823;DHT22;51097;51.984;5.650;2024-03-02T04:50:50;10.60;99.90
44823;DHT22;51097;51.984;5.650;2024-03-02T04:53:15;10.60;99.90
44823;DHT22;51097;51.984;5.650;2024-03-02T04:55:41;10.60;99.90
44823;DHT22;51097;51.984;5.650;2024-03-02T04:58:06;10.60;99.90
44823;DHT22;51097;51.984;5.650;2024-03-02T05:00:32;10.60;99.90
44823;DHT22;51097;51.984;5.650;2024-03-02T05:02:58;10.60;99.90
44823;DHT22;51097;51.984;5.650;2024-03-02T05:05:23;10.60;99.90
44823;DHT22;51097;51.984;5.650;2024-03-02T05:07:49;10.60;99.90
44823;DHT22;51097;51.984;5.650;2024-03-02T05:10:15;10.60;99.90
44823;DHT22;51097;51.984;5.650;2024-03-02T05:12:41;10.60;99.90
44823;DHT22;51097;51.984;5.650;2024-03-02T05:15:09;10.70;99.90
44823;DHT22;51097;51.984;5.650;2024-03-02T05:17:39;10.80;99.90
44823;DHT22;51097;51.984;5.650;2024-03-02T05:20:06;10.60;99.90
44823;DHT22;51097;51.984;5.650;2024-03-02T05:22:33;10.60;99.90
44823;DHT22;51097;51.984;5.650;2024-03-02T05:24:59;10.60;99.90
44823;DHT22;51097;51.984;5.650;2024-03-02T05:27:26;10.70;99.90
44823;DHT22;51097;51.984;5.650;2024-03-02T05:29:52;10.60;99.90
44823;DHT22;51097;51.984;5.650;2024-03-02T05:32:17;10.60;99.90
44823;DHT22;51097;51.984;5.650;2024-03-02T05:34:43;10.60;99.90
44823;DHT22;51097;51.984;5.650;2024-03-02T05:37:09;10.60;99.90
44823;DHT22;51097;51.984;5.650;2024-03-02T05:39:34;10.50;99.90
44823;DHT22;51097;51.984;5.650;2024-03-02T05:42:00;10.50;99.90
44823;DHT22;51097;51.984;5.650;2024-03-02T05:44:25;10.50;99.90
44823;DHT22;51097;51.984;5.650;2024-03-02T05:46:51;10.60;99.90
44823;DHT22;51097;51.984;5.650;2024-03-02T05:49:16;10.70;99.90
44823;DHT22;51097;51.984;5.650;2024-03-02T05:51:42;10.60;99.90
44823;DHT22;51097;51.984;5.650;2024-03-02T05:54:07;10.70;99.90
44823;DHT22;51097;51.984;5.650;2024-03-02T05:56:33;10.70;99.90
44823;DHT22;51097;51.984;5.650;2024-03-02T05:58:58;10.60;99.90
44823;DHT22;51097;51.984;5.650;2024-03-02T06:01:40;10.70;99.90
44823;DHT22;51097;51.984;5.650;2024-03-02T06:04:06;10.70;99.90
44823;DHT22;51097;51.984;5.650;2024-03-02T06:06:32;10.70;99.90
44823;DHT22;51097;51.984;5.650;2024-03-02T06:08:59;10.60;99.90
44823;DHT22;51097;51.984;5.650;2024-03-02T06:11:25;10.60;99.90
44823;DHT22;51097;51.984;5.650;2024-03-02T06:13:50;10.70;99.90
44823;DHT22;51097;51.984;5.650;2024-03-02T06:16:16;10.50;99.90
44823;DHT22;51097;51.984;5.650;2024-03-02T06:18:41;10.60;99.90
44823;DHT22;51097;51.984;5.650;2024-03-02T06:21:07;10.50;99.90
44823;DHT22;51097;51.984;5.650;2024-03-02T06:23:33;10.50;99.90
44823;DHT22;51097;51.984;5.650;2024-03-02T06:26:00;10.50;99.90
44823;DHT22;51097;51.984;5.650;2024-03-02T06:28:26;10.40;99.90
44823;DHT22;51097;51.984;5.650;2024-03-02T06:30:51;10.50;99.90
44823;DHT22;51097;51.984;5.650;2024-03-02T06:33:17;10.40;99.90
44823;DHT22;51097;51.984;5.650;2024-03-02T06:35:43;10.30;99.90
44823;DHT22;51097;51.984;5.650;2024-03-02T06:38:08;10.30;99.90
44823;DHT22;51097;51.984;5.650;2024-03-02T06:40:36;10.40;99.90
44823;DHT22;51097;51.984;5.650;2024-03-02T06:43:04;10.30;99.90
44823;DHT22;51097;51.984;5.650;2024-03-02T06:45:30;10.30;99.90
44823;DHT22;51097;51.984;5.650;2024-03-02T06:47:56;10.20;99.90
44823;DHT22;51097;51.984;5.650;2024-03-02T06:50:22;10.20;99.90
44823;DHT22;51097;51.984;5.650;2024-03-02T06:52:47;10.40;99.90
44823;DHT22;51097;51.984;5.650;2024-03-02T06:55:13;10.30;99.90
44823;DHT22;51097;51.984;5.650;2024-03-02T06:57:38;10.20;99.90
44823;DHT22;51097;51.984;5.650;2024-03-02T07:00:04;10.20;99.90
44823;DHT22;51097;51.984;5.650;2024-03-02T07:02:32;10.20;99.90
44823;DHT22;51097;51.984;5.650;2024-03-02T07:04:58;10.30;99.90
44823;DHT22;51097;51.984;5.650;2024-03-02T07:07:23;10.30;99.90
44823;DHT22;51097;51.984;5.650;2024-03-02T07:09:49;10.30;99.90
44823;DHT22;51097;51.984;5.650;2024-03-02T07:12:14;10.40;99.90
44823;DHT22;51097;51.984;5.650;2024-03-02T07:14:40;10.20;99.90
44823;DHT22;51097;51.984;5.650;2024-03-02T07:17:24;10.30;99.90
44823;DHT22;51097;51.984;5.650;2024-03-02T07:19:51;10.30;99.90
44823;DHT22;51097;51.984;5.650;2024-03-02T07:22:16;10.40;99.90
44823;DHT22;51097;51.984;5.650;2024-03-02T07:24:44;10.40;99.90
44823;DHT22;51097;51.984;5.650;2024-03-02T07:27:11;10.40;99.90
44823;DHT22;51097;51.984;5.650;2024-03-02T07:29:42;10.30;99.90
44823;DHT22;51097;51.984;5.650;2024-03-02T07:32:09;10.50;99.90
44823;DHT22;51097;51.984;5.650;2024-03-02T07:34:35;10.40;99.90
44823;DHT22;51097;51.984;5.650;2024-03-02T07:37:01;10.40;99.90
44823;DHT22;51097;51.984;5.650;2024-03-02T07:39:26;10.60;99.90
44823;DHT22;51097;51.984;5.650;2024-03-02T07:41:52;10.60;99.90
44823;DHT22;51097;51.984;5.650;2024-03-02T07:44:18;10.60;99.90
44823;DHT22;51097;51.984;5.650;2024-03-02T07:46:48;10.60;99.90
44823;DHT22;51097;51.984;5.650;2024-03-02T07:49:15;10.70;99.90
44823;DHT22;51097;51.984;5.650;2024-03-02T07:51:44;10.70;99.90
44823;DHT22;51097;51.984;5.650;2024-03-02T07:54:10;10.70;99.90
44823;DHT22;51097;51.984;5.650;2024-03-02T07:56:35;10.90;99.90
44823;DHT22;51097;51.984;5.650;2024-03-02T07:59:02;10.90;99.90
44823;DHT22;51097;51.984;5.650;2024-03-02T08:01:28;10.90;99.90
44823;DHT22;51097;51.984;5.650;2024-03-02T08:03:59;11.00;99.90
44823;DHT22;51097;51.984;5.650;2024-03-02T08:06:28;11.20;99.90
44823;DHT22;51097;51.984;5.650;2024-03-02T08:08:57;11.20;99.90
44823;DHT22;51097;51.984;5.650;2024-03-02T08:11:23;11.30;99.90
44823;DHT22;51097;51.984;5.650;2024-03-02T08:13:49;11.30;99.90
44823;DHT22;51097;51.984;5.650;2024-03-02T08:16:18;11.10;99.90
44823;DHT22;51097;51.984;5.650;2024-03-02T08:18:48;11.20;99.90
44823;DHT22;51097;51.984;5.650;2024-03-02T08:21:14;11.30;99.90
44823;DHT22;51097;51.984;5.650;2024-03-02T08:23:40;11.40;99.90
44823;DHT22;51097;51.984;5.650;2024-03-02T08:26:07;11.40;99.90
44823;DHT22;51097;51.984;5.650;2024-03-02T08:28:33;11.40;99.90
44823;DHT22;51097;51.984;5.650;2024-03-02T08:30:59;11.30;99.90
44823;DHT22;51097;51.984;5.650;2024-03-02T08:33:24;11.30;99.90
44823;DHT22;51097;51.984;5.650;2024-03-02T08:35:50;11.20;99.90
44823;DHT22;51097;51.984;5.650;2024-03-02T08:38:16;11.30;99.90
44823;DHT22;51097;51.984;5.650;2024-03-02T08:40:41;11.30;99.90
44823;DHT22;51097;51.984;5.650;2024-03-02T08:43:07;11.30;99.90
44823;DHT22;51097;51.984;5.650;2024-03-02T08:45:33;11.30;99.90
44823;DHT22;51097;51.984;5.650;2024-03-02T08:48:00;11.40;99.90
44823;DHT22;51097;51.984;5.650;2024-03-02T08:50:25;11.30;99.90
44823;DHT22;51097;51.984;5.650;2024-03-02T08:52:53;11.30;99.90
44823;DHT22;51097;51.984;5.650;2024-03-02T08:55:18;11.40;99.90
44823;DHT22;51097;51.984;5.650;2024-03-02T08:57:44;11.50;99.90
44823;DHT22;51097;51.984;5.650;2024-03-02T09:00:10;11.60;99.90
44823;DHT22;51097;51.984;5.650;2024-03-02T09:02:36;11.70;99.90
44823;DHT22;51097;51.984;5.650;2024-03-02T09:05:02;11.80;99.90
44823;DHT22;51097;51.984;5.650;2024-03-02T09:07:27;11.80;99.90
44823;DHT22;51097;51.984;5.650;2024-03-02T09:09:53;11.90;99.90
44823;DHT22;51097;51.984;5.650;2024-03-02T09:12:19;11.90;99.90
44823;DHT22;51097;51.984;5.650;2024-03-02T09:14:45;12.00;99.90
44823;DHT22;51097;51.984;5.650;2024-03-02T09:17:12;12.00;99.90
44823;DHT22;51097;51.984;5.650;2024-03-02T09:19:38;12.10;99.90
44823;DHT22;51097;51.984;5.650;2024-03-02T09:22:03;12.10;99.90
44823;DHT22;51097;51.984;5.650;2024-03-02T09:24:31;12.00;99.90
44823;DHT22;51097;51.984;5.650;2024-03-02T09:26:57;12.20;99.90
44823;DHT22;51097;51.984;5.650;2024-03-02T09:29:24;12.50;99.90
44823;DHT22;51097;51.984;5.650;2024-03-02T09:31:50;12.40;99.90
44823;DHT22;51097;51.984;5.650;2024-03-02T09:34:16;12.50;99.90
44823;DHT22;51097;51.984;5.650;2024-03-02T09:36:42;12.70;99.90
44823;DHT22;51097;51.984;5.650;2024-03-02T09:39:08;12.70;99.90
44823;DHT22;51097;51.984;5.650;2024-03-02T09:41:36;12.70;99.90
44823;DHT22;51097;51.984;5.650;2024-03-02T09:44:02;12.80;99.90
44823;DHT22;51097;51.984;5.650;2024-03-02T09:46:28;12.90;99.90
44823;DHT22;51097;51.984;5.650;2024-03-02T09:48:57;12.80;99.90
44823;DHT22;51097;51.984;5.650;2024-03-02T09:51:23;13.00;99.90
44823;DHT22;51097;51.984;5.650;2024-03-02T09:53:49;13.00;99.90
44823;DHT22;51097;51.984;5.650;2024-03-02T09:56:15;13.00;99.90
44823;DHT22;51097;51.984;5.650;2024-03-02T09:58:44;13.10;99.90
44823;DHT22;51097;51.984;5.650;2024-03-02T10:01:13;13.30;99.90
44823;DHT22;51097;51.984;5.650;2024-03-02T10:03:41;13.20;99.90
44823;DHT22;51097;51.984;5.650;2024-03-02T10:06:23;13.50;99.90
44823;DHT22;51097;51.984;5.650;2024-03-02T10:08:49;13.50;99.90
44823;DHT22;51097;51.984;5.650;2024-03-02T10:14:09;13.50;99.90
44823;DHT22;51097;51.984;5.650;2024-03-02T10:16:38;13.60;99.90
44823;DHT22;51097;51.984;5.650;2024-03-02T10:19:21;13.50;99.90
44823;DHT22;51097;51.984;5.650;2024-03-02T10:21:48;13.50;99.90
44823;DHT22;51097;51.984;5.650;2024-03-02T10:24:15;13.70;99.90
44823;DHT22;51097;51.984;5.650;2024-03-02T10:26:40;13.70;99.90
44823;DHT22;51097;51.984;5.650;2024-03-02T10:29:08;13.80;99.90
44823;DHT22;51097;51.984;5.650;2024-03-02T10:31:34;13.80;99.90
44823;DHT22;51097;51.984;5.650;2024-03-02T10:34:00;13.80;99.90
44823;DHT22;51097;51.984;5.650;2024-03-02T10:36:28;13.80;99.90
44823;DHT22;51097;51.984;5.650;2024-03-02T10:38:56;13.90;99.90
44823;DHT22;51097;51.984;5.650;2024-03-02T10:41:26;13.90;99.90
44823;DHT22;51097;51.984;5.650;2024-03-02T10:43:53;14.30;99.90
44823;DHT22;51097;51.984;5.650;2024-03-02T10:46:28;14.40;99.90
44823;DHT22;51097;51.984;5.650;2024-03-02T10:48:57;14.30;99.90
44823;DHT22;51097;51.984;5.650;2024-03-02T10:51:28;14.30;99.90
44823;DHT22;51097;51.984;5.650;2024-03-02T10:53:54;14.30;99.90
44823;DHT22;51097;51.984;5.650;2024-03-02T10:56:41;14.20;99.90
44823;DHT22;51097;51.984;5.650;2024-03-02T10:59:14;14.20;99.90
44823;DHT22;51097;51.984;5.650;2024-03-02T11:01:43;14.30;99.90
44823;DHT22;51097;51.984;5.650;2024-03-02T11:04:09;14.20;99.90
44823;DHT22;51097;51.984;5.650;2024-03-02T11:06:38;14.30;99.90
44823;DHT22;51097;51.984;5.650;2024-03-02T11:09:07;14.40;99.90
44823;DHT22;51097;51.984;5.650;2024-03-02T11:11:42;14.60;99.90
44823;DHT22;51097;51.984;5.650;2024-03-02T11:14:13;14.90;99.90
44823;DHT22;51097;51.984;5.650;2024-03-02T11:16:40;14.90;99.90
44823;DHT22;51097;51.984;5.650;2024-03-02T11:19:14;15.00;99.90
44823;DHT22;51097;51.984;5.650;2024-03-02T11:21:41;15.00;99.90
44823;DHT22;51097;51.984;5.650;2024-03-02T11:26:49;15.10;99.90
44823;DHT22;51097;51.984;5.650;2024-03-02T11:32:04;15.20;99.90
44823;DHT22;51097;51.984;5.650;2024-03-02T11:34:36;15.30;99.90
44823;DHT22;51097;51.984;5.650;2024-03-02T11:37:05;15.30;99.90
44823;DHT22;51097;51.984;5.650;2024-03-02T11:39:31;15.40;99.90
44823;DHT22;51097;51.984;5.650;2024-03-02T11:41:57;15.40;99.90
44823;DHT22;51097;51.984;5.650;2024-03-02T11:44:26;15.40;99.90
44823;DHT22;51097;51.984;5.650;2024-03-02T11:46:57;15.60;99.90
44823;DHT22;51097;51.984;5.650;2024-03-02T11:49:50;15.70;99.90
44823;DHT22;51097;51.984;5.650;2024-03-02T11:52:17;15.70;99.90
44823;DHT22;51097;51.984;5.650;2024-03-02T11:54:45;15.80;99.90
44823;DHT22;51097;51.984;5.650;2024-03-02T11:57:19;15.90;99.90
44823;DHT22;51097;51.984;5.650;2024-03-02T11:59:45;16.00;99.90
44823;DHT22;51097;51.984;5.650;2024-03-02T12:02:18;16.00;99.90
44823;DHT22;51097;51.984;5.650;2024-03-02T12:04:45;16.00;99.90
44823;DHT22;51097;51.984;5.650;2024-03-02T12:07:11;16.00;99.90
44823;DHT22;51097;51.984;5.650;2024-03-02T12:09:38;16.00;99.90
44823;DHT22;51097;51.984;5.650;2024-03-02T12:12:10;16.00;99.90
44823;DHT22;51097;51.984;5.650;2024-03-02T12:14:37;16.20;99.90
44823;DHT22;51097;51.984;5.650;2024-03-02T12:17:04;16.40;99.90
44823;DHT22;51097;51.984;5.650;2024-03-02T12:19:30;16.40;99.90
44823;DHT22;51097;51.984;5.650;2024-03-02T12:21:57;16.30;99.90
44823;DHT22;51097;51.984;5.650;2024-03-02T12:24:23;16.60;99.90
44823;DHT22;51097;51.984;5.650;2024-03-02T12:26:50;16.70;99.90
44823;DHT22;51097;51.984;5.650;2024-03-02T12:29:16;16.70;99.90
44823;DHT22;51097;51.984;5.650;2024-03-02T12:31:42;16.80;99.90
44823;DHT22;51097;51.984;5.650;2024-03-02T12:34:12;17.00;99.90
44823;DHT22;51097;51.984;5.650;2024-03-02T12:36:39;17.00;99.90
44823;DHT22;51097;51.984;5.650;2024-03-02T12:39:05;17.10;99.60
44823;DHT22;51097;51.984;5.650;2024-03-02T12:41:30;17.00;99.60
44823;DHT22;51097;51.984;5.650;2024-03-02T12:43:56;17.00;99.90
44823;DHT22;51097;51.984;5.650;2024-03-02T12:46:22;17.10;99.90
44823;DHT22;51097;51.984;5.650;2024-03-02T12:48:47;17.10;98.80
44823;DHT22;51097;51.984;5.650;2024-03-02T12:51:13;17.00;99.10
44823;DHT22;51097;51.984;5.650;2024-03-02T12:53:39;17.20;99.90
44823;DHT22;51097;51.984;5.650;2024-03-02T12:56:05;17.10;99.40
44823;DHT22;51097;51.984;5.650;2024-03-02T12:58:41;17.20;99.60
44823;DHT22;51097;51.984;5.650;2024-03-02T13:01:08;17.10;99.70
44823;DHT22;51097;51.984;5.650;2024-03-02T13:03:38;17.20;99.80
44823;DHT22;51097;51.984;5.650;2024-03-02T13:06:05;17.20;99.80
44823;DHT22;51097;51.984;5.650;2024-03-02T13:08:31;17.30;99.80
44823;DHT22;51097;51.984;5.650;2024-03-02T13:10:57;17.30;99.70
44823;DHT22;51097;51.984;5.650;2024-03-02T13:13:23;17.50;99.70
44823;DHT22;51097;51.984;5.650;2024-03-02T13:15:48;17.20;98.50
44823;DHT22;51097;51.984;5.650;2024-03-02T13:18:14;17.10;98.70
44823;DHT22;51097;51.984;5.650;2024-03-02T13:20:39;17.30;98.80
44823;DHT22;51097;51.984;5.650;2024-03-02T13:23:05;17.20;99.00
44823;DHT22;51097;51.984;5.650;2024-03-02T13:25:31;17.20;98.90
44823;DHT22;51097;51.984;5.650;2024-03-02T13:27:57;17.30;98.30
44823;DHT22;51097;51.984;5.650;2024-03-02T13:30:23;17.30;98.40
44823;DHT22;51097;51.984;5.650;2024-03-02T13:32:49;17.30;99.10
44823;DHT22;51097;51.984;5.650;2024-03-02T13:35:14;17.40;98.50
44823;DHT22;51097;51.984;5.650;2024-03-02T13:37:40;17.60;99.10
44823;DHT22;51097;51.984;5.650;2024-03-02T13:40:06;17.70;97.90
44823;DHT22;51097;51.984;5.650;2024-03-02T13:42:33;17.70;98.10
44823;DHT22;51097;51.984;5.650;2024-03-02T13:44:58;17.80;97.80
44823;DHT22;51097;51.984;5.650;2024-03-02T13:47:24;18.00;99.00
44823;DHT22;51097;51.984;5.650;2024-03-02T13:49:50;18.20;96.90
44823;DHT22;51097;51.984;5.650;2024-03-02T13:52:15;18.00;96.80
44823;DHT22;51097;51.984;5.650;2024-03-02T13:54:46;17.90;96.90
44823;DHT22;51097;51.984;5.650;2024-03-02T13:57:12;18.00;96.90
44823;DHT22;51097;51.984;5.650;2024-03-02T13:59:38;18.00;96.60
44823;DHT22;51097;51.984;5.650;2024-03-02T14:02:08;17.80;96.40
44823;DHT22;51097;51.984;5.650;2024-03-02T14:04:34;17.70;96.70
44823;DHT22;51097;51.984;5.650;2024-03-02T14:07:00;17.80;96.60
44823;DHT22;51097;51.984;5.650;2024-03-02T14:09:26;17.80;96.60
44823;DHT22;51097;51.984;5.650;2024-03-02T14:11:53;18.10;96.40
44823;DHT22;51097;51.984;5.650;2024-03-02T14:14:19;18.10;96.30
44823;DHT22;51097;51.984;5.650;2024-03-02T14:16:45;18.30;97.60
44823;DHT22;51097;51.984;5.650;2024-03-02T14:19:11;18.40;96.70
44823;DHT22;51097;51.984;5.650;2024-03-02T14:21:38;18.30;96.30
44823;DHT22;51097;51.984;5.650;2024-03-02T14:24:04;18.40;95.90
44823;DHT22;51097;51.984;5.650;2024-03-02T14:26:29;18.30;95.80
44823;DHT22;51097;51.984;5.650;2024-03-02T14:28:55;18.40;96.40
44823;DHT22;51097;51.984;5.650;2024-03-02T14:31:21;18.40;96.00
44823;DHT22;51097;51.984;5.650;2024-03-02T14:33:46;18.50;96.10
44823;DHT22;51097;51.984;5.650;2024-03-02T14:36:12;18.50;95.60
44823;DHT22;51097;51.984;5.650;2024-03-02T14:38:38;18.30;95.10
44823;DHT22;51097;51.984;5.650;2024-03-02T14:41:04;18.20;95.00
44823;DHT22;51097;51.984;5.650;2024-03-02T14:43:30;17.90;95.80
44823;DHT22;51097;51.984;5.650;2024-03-02T14:45:56;17.90;96.10
44823;DHT22;51097;51.984;5.650;2024-03-02T14:48:22;17.60;97.40
44823;DHT22;51097;51.984;5.650;2024-03-02T14:50:48;17.70;97.10
44823;DHT22;51097;51.984;5.650;2024-03-02T14:53:13;17.70;97.00
44823;DHT22;51097;51.984;5.650;2024-03-02T14:55:39;17.60;97.00
44823;DHT22;51097;51.984;5.650;2024-03-02T14:58:04;17.80;97.20
44823;DHT22;51097;51.984;5.650;2024-03-02T15:00:33;17.70;97.00
44823;DHT22;51097;51.984;5.650;2024-03-02T15:02:59;17.40;97.10
44823;DHT22;51097;51.984;5.650;2024-03-02T15:05:25;17.50;97.40
44823;DHT22;51097;51.984;5.650;2024-03-02T15:07:52;17.50;97.60
44823;DHT22;51097;51.984;5.650;2024-03-02T15:10:17;17.40;97.20
44823;DHT22;51097;51.984;5.650;2024-03-02T15:12:43;17.50;97.40
44823;DHT22;51097;51.984;5.650;2024-03-02T15:15:09;17.40;97.30
44823;DHT22;51097;51.984;5.650;2024-03-02T15:17:36;17.20;97.50
44823;DHT22;51097;51.984;5.650;2024-03-02T15:20:02;17.10;98.60
44823;DHT22;51097;51.984;5.650;2024-03-02T15:22:29;17.10;97.60
44823;DHT22;51097;51.984;5.650;2024-03-02T15:24:55;17.10;98.20
44823;DHT22;51097;51.984;5.650;2024-03-02T15:27:21;17.00;98.30
44823;DHT22;51097;51.984;5.650;2024-03-02T15:29:46;17.10;98.80
44823;DHT22;51097;51.984;5.650;2024-03-02T15:32:13;17.30;99.00
44823;DHT22;51097;51.984;5.650;2024-03-02T15:34:39;17.30;99.00
44823;DHT22;51097;51.984;5.650;2024-03-02T15:37:04;17.10;99.60
44823;DHT22;51097;51.984;5.650;2024-03-02T15:39:30;17.10;99.90